createdAt,value
2022-08-03T16:42:22.871Z,1.10
2022-08-03T16:43:20.567Z,0.80
2022-08-03T16:44:20.544Z,0.70
2022-08-03T16:45:20.543Z,0.70
2022-08-03T16:46:20.576Z,0.80
2022-08-03T16:47:22.115Z,1.30
2022-08-03T16:48:20.761Z,1.30
2022-08-03T16:49:53.889Z,1.00
2022-08-03T16:50:21.467Z,1.30
2022-08-03T16:51:20.449Z,1.50
2022-08-03T16:52:20.483Z,1.20
2022-08-03T16:53:33.553Z,1.30
2022-08-03T16:54:21.610Z,1.20
2022-08-03T16:55:43.408Z,1.20
2022-08-03T16:56:21.472Z,1.60
2022-08-03T16:57:56.494Z,1.80
2022-08-03T16:58:34.348Z,2.10
2022-08-03T16:59:21.450Z,2.10
2022-08-03T17:00:34.328Z,3.30
2022-08-03T17:01:24.989Z,2.30
2022-08-03T17:02:21.666Z,2.40
2022-08-03T17:03:24.147Z,2.00
2022-08-03T17:04:20.334Z,2.00
2022-08-03T17:05:20.312Z,2.30
2022-08-03T17:06:20.536Z,2.00
2022-08-03T17:07:20.446Z,1.70
2022-08-03T17:08:26.699Z,1.90
2022-08-03T17:09:21.303Z,2.20
2022-08-03T17:10:21.970Z,2.10
2022-08-03T17:11:21.569Z,1.90
2022-08-03T17:12:20.279Z,2.00
2022-08-03T17:13:22.465Z,2.70
2022-08-03T17:14:21.640Z,2.40
2022-08-03T17:15:20.215Z,1.90
2022-08-03T17:16:21.440Z,3.30
2022-08-03T17:17:20.185Z,3.30
2022-08-03T17:18:21.817Z,3.70
2022-08-03T17:19:20.215Z,3.00
2022-08-03T17:20:20.175Z,2.50
2022-08-03T17:21:21.177Z,2.10
2022-08-03T17:22:20.537Z,2.10
2022-08-03T17:23:34.917Z,1.90
2022-08-03T17:24:21.125Z,1.80
2022-08-03T17:25:21.983Z,2.00
2022-08-03T17:26:22.388Z,1.60
2022-08-03T17:28:43.101Z,1.70
2022-08-03T17:28:48.990Z,1.50
2022-08-03T17:29:22.907Z,1.70
2022-08-03T17:30:20.270Z,1.40
2022-08-03T17:31:23.479Z,1.50
2022-08-03T17:32:21.887Z,1.80
2022-08-03T17:33:20.628Z,1.80
2022-08-03T17:34:20.029Z,1.90
2022-08-03T17:35:21.074Z,1.70
2022-08-03T17:36:20.036Z,2.20
2022-08-03T17:37:50.497Z,1.70
2022-08-03T17:38:22.984Z,1.40
2022-08-03T17:39:35.799Z,1.20
2022-08-03T17:40:20.994Z,1.40
2022-08-03T17:41:19.952Z,1.30
2022-08-03T17:42:38.847Z,1.40
2022-08-03T17:44:12.832Z,1.50
2022-08-03T17:44:35.111Z,1.30
2022-08-03T17:45:20.956Z,1.40
2022-08-03T17:46:19.897Z,1.40
2022-08-03T17:47:19.868Z,1.50
2022-08-03T17:48:20.016Z,1.20
2022-08-03T17:49:24.982Z,1.40
2022-08-03T17:50:24.832Z,1.20
2022-08-03T17:51:20.840Z,1.30
2022-08-03T17:52:19.953Z,1.50
2022-08-03T17:53:23.835Z,1.50
2022-08-03T17:54:19.998Z,1.40
2022-08-03T17:55:57.326Z,1.70
2022-08-03T17:56:45.314Z,1.70
2022-08-03T17:57:21.804Z,1.70
2022-08-03T17:58:19.761Z,1.60
2022-08-03T17:59:51.336Z,1.50
2022-08-03T18:00:21.169Z,1.40
2022-08-03T18:02:29.495Z,1.30
2022-08-03T18:03:20.909Z,1.30
2022-08-03T18:04:19.723Z,1.30
2022-08-03T18:05:21.839Z,1.50
2022-08-03T18:06:27.888Z,1.30
2022-08-03T18:07:20.671Z,1.30
2022-08-03T18:08:19.682Z,1.20
2022-08-03T18:10:03.426Z,1.10
2022-08-03T18:10:20.663Z,1.20
2022-08-03T18:11:19.632Z,1.30
2022-08-03T18:12:20.064Z,1.30
2022-08-03T18:13:19.610Z,1.30
2022-08-03T18:14:19.600Z,1.30
2022-08-03T18:15:21.999Z,1.40
2022-08-03T18:16:19.598Z,1.20
2022-08-03T18:17:19.546Z,1.30
2022-08-03T18:18:32.170Z,1.30
2022-08-03T18:19:20.557Z,1.10
2022-08-03T18:20:31.139Z,1.10
2022-08-03T18:21:20.504Z,1.40
2022-08-03T18:22:19.772Z,1.00
2022-08-03T18:23:36.325Z,1.30
2022-08-03T18:24:20.654Z,1.30
2022-08-03T18:25:19.487Z,1.20
2022-08-03T18:26:20.453Z,1.30
2022-08-03T18:27:19.657Z,1.10
2022-08-03T18:28:19.446Z,1.20
2022-08-03T18:29:19.434Z,1.30
2022-08-03T18:30:19.622Z,1.20
2022-08-03T18:31:59.720Z,1.10
2022-08-03T18:32:20.426Z,1.30
2022-08-03T18:34:17.565Z,1.00
2022-08-03T18:34:33.075Z,1.20
2022-08-03T18:35:20.544Z,1.20
2022-08-03T18:36:21.971Z,1.30
2022-08-03T18:37:24.669Z,1.50
2022-08-03T18:38:19.336Z,1.50
2022-08-03T18:39:19.629Z,1.40
2022-08-03T18:40:20.864Z,1.40
2022-08-03T18:41:33.390Z,1.10
2022-08-03T18:42:20.557Z,1.20
2022-08-03T18:43:20.260Z,1.40
2022-08-03T18:44:46.622Z,1.40
2022-08-03T18:45:57.268Z,1.20
2022-08-03T18:46:20.385Z,1.40
2022-08-03T18:47:19.220Z,1.30
2022-08-03T18:48:19.232Z,1.50
2022-08-03T18:49:19.186Z,1.10
2022-08-03T18:50:19.589Z,1.10
2022-08-03T18:51:24.121Z,1.40
2022-08-03T18:52:20.404Z,1.80
2022-08-03T18:53:19.572Z,1.40
2022-08-03T18:54:51.727Z,1.60
2022-08-03T18:55:32.931Z,1.90
2022-08-03T18:56:20.619Z,1.60
2022-08-03T18:57:19.114Z,1.60
2022-08-03T18:58:19.498Z,1.80
2022-08-03T18:59:30.253Z,1.80
2022-08-03T19:00:23.947Z,1.60
2022-08-03T19:01:59.622Z,1.80
2022-08-03T19:02:20.199Z,2.00
2022-08-03T19:03:20.385Z,2.00
2022-08-03T19:04:19.136Z,2.30
2022-08-03T19:05:20.065Z,3.10
2022-08-03T19:06:20.057Z,3.40
2022-08-03T19:07:22.217Z,3.00
2022-08-03T19:08:19.021Z,2.70
2022-08-03T19:09:18.990Z,2.60
2022-08-03T19:10:19.158Z,2.60
2022-08-03T19:11:18.995Z,2.50
2022-08-03T19:13:20.002Z,2.30
2022-08-03T19:14:19.981Z,2.10
2022-08-03T19:15:18.950Z,2.10
2022-08-03T19:16:20.435Z,2.30
2022-08-03T19:17:21.345Z,2.20
2022-08-03T19:18:18.890Z,2.40
2022-08-03T19:19:18.886Z,2.30
2022-08-03T19:20:18.905Z,1.90
2022-08-03T19:21:18.869Z,2.00
2022-08-03T19:22:19.090Z,1.90
2022-08-03T19:23:18.858Z,2.30
2022-08-03T19:24:18.832Z,2.10
2022-08-03T19:25:18.832Z,2.30
2022-08-03T19:26:30.118Z,2.10
2022-08-03T19:27:19.811Z,2.40
2022-08-03T19:28:19.962Z,2.80
2022-08-03T19:29:19.799Z,2.30
2022-08-03T19:30:26.025Z,2.30
2022-08-03T19:31:19.769Z,2.00
2022-08-03T19:32:19.187Z,2.60
2022-08-03T19:33:19.028Z,2.10
2022-08-03T19:34:18.925Z,2.50
2022-08-03T19:35:19.208Z,2.60
2022-08-03T19:36:26.371Z,2.50
2022-08-03T19:37:19.726Z,2.60
2022-08-03T19:38:28.486Z,2.50
2022-08-03T19:39:19.883Z,2.70
2022-08-03T19:40:19.753Z,3.00
2022-08-03T19:41:18.655Z,2.70
2022-08-03T19:42:23.132Z,2.70
2022-08-03T19:43:18.648Z,3.10
2022-08-03T19:44:19.893Z,3.10
2022-08-03T19:45:18.781Z,3.60
2022-08-03T19:46:18.619Z,4.00
2022-08-03T19:47:18.604Z,3.60
2022-08-03T19:48:18.603Z,3.70
2022-08-03T19:49:18.586Z,4.60
2022-08-03T19:50:18.594Z,4.30
2022-08-03T19:51:18.962Z,4.20
2022-08-03T19:52:20.912Z,3.90
2022-08-03T19:53:19.537Z,3.90
2022-08-03T19:54:18.557Z,4.00
2022-08-03T19:55:19.524Z,3.50
2022-08-03T19:56:18.504Z,4.10
2022-08-03T19:57:19.139Z,3.60
2022-08-03T19:58:28.353Z,4.00
2022-08-03T19:59:19.475Z,4.20
2022-08-03T20:00:18.464Z,4.30
2022-08-03T20:01:21.567Z,4.00
2022-08-03T20:02:25.549Z,3.80
2022-08-03T20:03:21.861Z,3.80
2022-08-03T20:04:18.475Z,3.80
2022-08-03T20:05:18.440Z,3.60
2022-08-03T20:06:18.427Z,3.10
2022-08-03T20:07:22.607Z,3.80
2022-08-03T20:08:18.381Z,3.40
2022-08-03T20:09:18.559Z,3.60
2022-08-03T20:10:18.407Z,3.70
2022-08-03T20:11:18.361Z,3.50
2022-08-03T20:12:18.596Z,3.40
2022-08-03T20:13:19.617Z,3.50
2022-08-03T20:14:20.897Z,2.90
2022-08-03T20:15:22.433Z,3.50
2022-08-03T20:16:19.280Z,3.20
2022-08-03T20:17:21.165Z,2.90
2022-08-03T20:18:18.299Z,2.90
2022-08-03T20:19:18.260Z,2.90
2022-08-03T20:20:18.292Z,3.20
2022-08-03T20:21:18.391Z,3.70
2022-08-03T20:22:18.240Z,3.10
2022-08-03T20:23:18.259Z,3.10
2022-08-03T20:24:24.263Z,3.00
2022-08-03T20:25:20.777Z,2.80
2022-08-03T20:26:18.161Z,3.00
2022-08-03T20:27:18.369Z,3.20
2022-08-03T20:28:18.201Z,2.80
2022-08-03T20:29:19.146Z,3.50
2022-08-03T20:30:18.143Z,3.00
2022-08-03T20:31:19.233Z,3.00
2022-08-03T20:32:18.149Z,3.40
2022-08-03T20:33:19.456Z,3.20
2022-08-03T20:34:19.121Z,3.10
2022-08-03T20:35:18.100Z,2.90
2022-08-03T20:36:18.662Z,3.60
2022-08-03T20:37:18.324Z,3.10
2022-08-03T20:38:18.480Z,2.80
2022-08-03T20:39:18.307Z,3.10
2022-08-03T20:40:18.055Z,3.00
2022-08-03T20:41:18.302Z,2.90
2022-08-03T20:44:25.588Z,3.00
2022-08-03T20:45:59.965Z,3.20
2022-08-03T20:46:31.802Z,3.30
2022-08-03T20:47:23.792Z,3.10
2022-08-03T20:48:22.056Z,2.80
2022-08-03T20:49:17.922Z,2.90
2022-08-03T20:50:17.908Z,3.10
2022-08-03T20:51:19.927Z,3.30
2022-08-03T20:52:18.298Z,3.20
2022-08-03T20:53:57.176Z,3.40
2022-08-03T20:54:23.026Z,3.00
2022-08-03T20:55:20.495Z,2.80
2022-08-03T20:56:18.885Z,3.00
2022-08-03T20:57:17.884Z,2.90
2022-08-03T20:58:17.963Z,3.10
2022-08-03T20:59:18.067Z,2.70
2022-08-03T21:00:17.828Z,3.00
2022-08-03T21:01:17.809Z,3.10
2022-08-03T21:02:19.920Z,3.10
2022-08-03T21:03:18.828Z,3.00
2022-08-03T21:04:20.944Z,2.80
2022-08-03T21:05:17.966Z,3.00
2022-08-03T21:06:18.835Z,2.90
2022-08-03T21:07:18.772Z,3.00
2022-08-03T21:08:17.757Z,3.10
2022-08-03T21:09:17.761Z,2.40
2022-08-03T21:10:17.701Z,2.90
2022-08-03T21:11:17.884Z,2.70
2022-08-03T21:12:17.783Z,2.50
2022-08-03T21:13:05.734Z,1.30
2022-08-03T21:13:09.132Z,2.40
2022-08-03T21:13:13.617Z,2.90
2022-08-03T21:13:14.055Z,3.10
2022-08-03T21:14:17.715Z,2.40
2022-08-03T21:16:06.538Z,2.20
2022-08-03T21:16:19.064Z,2.20
2022-08-03T21:17:31.209Z,2.00
2022-08-03T21:18:18.669Z,2.60
2022-08-03T21:19:17.646Z,2.50
2022-08-03T21:20:17.590Z,2.40
2022-08-03T21:21:17.603Z,2.50
2022-08-03T21:22:17.798Z,2.10
2022-08-03T21:23:40.163Z,2.10
2022-08-03T21:24:18.545Z,2.80
2022-08-03T21:25:17.540Z,2.30
2022-08-03T21:26:17.524Z,2.20
2022-08-03T21:27:17.549Z,2.30
2022-08-03T21:28:20.860Z,2.50
2022-08-03T21:29:18.537Z,2.10
2022-08-03T21:30:17.489Z,2.20
2022-08-03T21:31:24.635Z,2.60
2022-08-03T21:32:19.182Z,2.40
2022-08-03T21:33:18.603Z,2.70
2022-08-03T21:34:17.476Z,1.90
2022-08-03T21:35:17.456Z,2.40
2022-08-03T21:36:17.414Z,2.40
2022-08-03T21:37:17.446Z,2.20
2022-08-03T21:38:17.418Z,2.60
2022-08-03T21:39:17.682Z,2.60
2022-08-03T21:40:17.391Z,2.20
2022-08-03T21:41:17.440Z,2.00
2022-08-03T21:42:17.379Z,2.50
2022-08-03T21:43:17.365Z,2.60
2022-08-03T21:44:17.552Z,2.50
2022-08-03T21:45:18.326Z,2.60
2022-08-03T21:46:17.332Z,2.00
2022-08-03T21:47:17.314Z,2.50
2022-08-03T21:48:17.333Z,2.50
2022-08-03T21:50:05.608Z,2.50
2022-08-03T21:50:18.672Z,2.40
2022-08-03T21:51:17.273Z,2.50
2022-08-03T21:52:17.298Z,2.30
2022-08-03T21:53:17.246Z,2.10
2022-08-03T21:54:17.244Z,2.10
2022-08-03T21:55:20.507Z,2.30
2022-08-03T21:56:17.424Z,1.90
2022-08-03T21:57:17.253Z,2.10
2022-08-03T21:58:17.235Z,2.30
2022-08-03T21:59:17.229Z,2.30
2022-08-03T22:00:17.184Z,2.20
2022-08-03T22:01:17.268Z,2.40
2022-08-03T22:02:22.768Z,2.40
2022-08-03T22:03:18.158Z,2.00
2022-08-03T22:04:50.962Z,2.10
2022-08-03T22:05:18.109Z,2.00
2022-08-03T22:06:19.640Z,2.40
2022-08-03T22:07:17.172Z,2.30
2022-08-03T22:08:17.665Z,2.00
2022-08-03T22:09:17.099Z,2.10
2022-08-03T22:10:17.247Z,1.90
2022-08-03T22:11:17.080Z,2.10
2022-08-03T22:12:17.064Z,1.80
2022-08-03T22:13:43.082Z,1.70
2022-08-03T22:14:18.204Z,1.90
2022-08-03T22:15:17.054Z,2.30
2022-08-03T22:16:17.005Z,1.80
2022-08-03T22:17:24.457Z,1.70
2022-08-03T22:18:17.987Z,2.10
2022-08-03T22:19:17.171Z,1.90
2022-08-03T22:20:16.946Z,1.70
2022-08-03T22:21:16.991Z,2.00
2022-08-03T22:22:18.010Z,1.50
2022-08-03T22:23:20.982Z,1.80
2022-08-03T22:24:16.929Z,1.80
2022-08-03T22:25:17.098Z,1.70
2022-08-03T22:26:16.899Z,1.80
2022-08-03T22:27:17.897Z,1.70
2022-08-03T22:28:16.860Z,2.10
2022-08-03T22:29:16.895Z,1.80
2022-08-03T22:30:16.839Z,1.80
2022-08-03T22:31:56.969Z,1.60
2022-08-03T22:32:17.857Z,1.80
2022-08-03T22:33:16.820Z,1.80
2022-08-03T22:34:16.790Z,1.80
2022-08-03T22:35:16.824Z,1.80
2022-08-03T22:36:16.835Z,1.50
2022-08-03T22:37:16.953Z,1.70
2022-08-03T22:38:16.814Z,1.90
2022-08-03T22:39:25.926Z,1.70
2022-08-03T22:40:17.732Z,1.90
2022-08-03T22:41:16.733Z,1.80
2022-08-03T22:42:16.897Z,1.90
2022-08-03T22:43:16.781Z,2.10
2022-08-03T22:44:16.676Z,2.10
2022-08-03T22:46:06.228Z,1.80
2022-08-03T22:46:18.783Z,2.00
2022-08-03T22:47:16.686Z,1.90
2022-08-03T22:48:17.893Z,1.90
2022-08-03T22:49:16.677Z,1.90
2022-08-03T22:50:31.855Z,1.80
2022-08-03T22:51:17.641Z,1.80
2022-08-03T22:52:16.622Z,2.00
2022-08-03T22:53:16.829Z,2.10
2022-08-03T22:54:16.615Z,1.80
2022-08-03T22:55:24.555Z,1.80
2022-08-03T22:56:17.627Z,2.10
2022-08-03T22:57:16.585Z,1.90
2022-08-03T22:58:16.595Z,1.70
2022-08-03T22:59:41.469Z,1.60
2022-08-03T23:00:17.496Z,1.90
2022-08-03T23:01:16.586Z,1.80
2022-08-03T23:02:21.242Z,1.90
2022-08-03T23:03:17.564Z,1.90
2022-08-03T23:04:16.600Z,1.90
2022-08-03T23:06:02.458Z,1.80
2022-08-03T23:06:17.451Z,1.80
2022-08-03T23:07:16.494Z,1.70
2022-08-03T23:08:16.481Z,1.80
2022-08-03T23:09:16.463Z,1.80
2022-08-03T23:10:16.408Z,2.10
2022-08-03T23:11:16.573Z,1.80
2022-08-03T23:12:16.420Z,1.90
2022-08-03T23:13:16.389Z,1.80
2022-08-03T23:14:16.403Z,1.80
2022-08-03T23:15:16.418Z,1.90
2022-08-03T23:16:16.535Z,1.70
2022-08-03T23:17:17.392Z,1.60
2022-08-03T23:18:16.334Z,1.90
2022-08-03T23:19:17.160Z,1.80
2022-08-03T23:20:17.319Z,1.70
2022-08-03T23:21:16.305Z,2.00
2022-08-03T23:22:29.320Z,1.90
2022-08-03T23:23:20.005Z,1.80
2022-08-03T23:24:27.510Z,1.70
2022-08-03T23:25:17.259Z,1.80
2022-08-03T23:26:16.215Z,1.80
2022-08-03T23:27:16.409Z,2.00
2022-08-03T23:28:16.240Z,2.10
2022-08-03T23:29:16.258Z,1.80
2022-08-03T23:30:16.219Z,2.00
2022-08-03T23:31:16.188Z,2.00
2022-08-03T23:32:16.176Z,2.10
2022-08-03T23:33:16.307Z,1.90
2022-08-03T23:34:16.693Z,2.00
2022-08-03T23:35:16.137Z,2.10
2022-08-03T23:36:30.753Z,2.20
2022-08-03T23:37:17.162Z,2.40
2022-08-03T23:38:21.915Z,2.00
2022-08-03T23:39:17.333Z,2.20
2022-08-03T23:40:16.106Z,2.20
2022-08-03T23:41:16.077Z,1.70
2022-08-03T23:42:16.115Z,1.90
2022-08-03T23:43:18.869Z,2.10
2022-08-03T23:44:17.220Z,2.00
2022-08-03T23:45:16.087Z,2.10
2022-08-03T23:46:18.273Z,1.80
2022-08-03T23:47:15.989Z,2.10
2022-08-03T23:48:16.029Z,2.20
2022-08-03T23:49:15.997Z,2.20
2022-08-03T23:50:16.165Z,2.10
2022-08-03T23:51:15.979Z,2.00
2022-08-03T23:52:15.954Z,1.80
2022-08-03T23:53:15.959Z,2.20
2022-08-03T23:54:15.930Z,1.90
2022-08-03T23:55:16.199Z,1.90
2022-08-03T23:56:15.910Z,2.00
2022-08-03T23:57:15.922Z,1.60
2022-08-03T23:58:15.907Z,1.50
2022-08-03T23:59:15.904Z,1.40
